sensor_id;sensor_type;location;lat;lon;timestamp;temperature;humidity
7163;DHT22;3623;47.098;15.446;2024-02-04T00:01:58;6.20;99.90
7163;DHT22;3623;47.098;15.446;2024-02-04T00:04:27;6.10;99.90
7163;DHT22;3623;47.098;15.446;2024-02-04T00:06:54;6.30;99.90
7163;DHT22;3623;47.098;15.446;2024-02-04T00:09:21;6.30;99.90
7163;DHT22;3623;47.098;15.446;2024-02-04T00:11:48;6.20;99.90
7163;DHT22;3623;47.098;15.446;2024-02-04T00:14:16;6.30;99.90
7163;DHT22;3623;47.098;15.446;2024-02-04T00:16:43;6.00;99.90
7163;DHT22;3623;47.098;15.446;2024-02-04T00:19:11;5.90;99.90
7163;DHT22;3623;47.098;15.446;2024-02-04T00:21:39;5.80;99.90
7163;DHT22;3623;47.098;15.446;2024-02-04T00:24:06;5.60;99.90
7163;DHT22;3623;47.098;15.446;2024-02-04T00:26:33;5.80;99.90
7163;DHT22;3623;47.098;15.446;2024-02-04T00:29:01;5.80;99.90
7163;DHT22;3623;47.098;15.446;2024-02-04T00:31:28;5.80;99.90
7163;DHT22;3623;47.098;15.446;2024-02-04T00:33:55;6.00;99.90
7163;DHT22;3623;47.098;15.446;2024-02-04T00:36:22;6.20;99.90
7163;DHT22;3623;47.098;15.446;2024-02-04T00:38:51;6.10;99.90
7163;DHT22;3623;47.098;15.446;2024-02-04T00:41:18;6.20;99.90
7163;DHT22;3623;47.098;15.446;2024-02-04T00:43:45;6.10;99.90
7163;DHT22;3623;47.098;15.446;2024-02-04T00:46:12;6.00;99.90
7163;DHT22;3623;47.098;15.446;2024-02-04T00:48:39;6.20;99.90
7163;DHT22;3623;47.098;15.446;2024-02-04T00:51:07;6.30;99.90
7163;DHT22;3623;47.098;15.446;2024-02-04T00:53:34;6.30;99.90
7163;DHT22;3623;47.098;15.446;2024-02-04T00:56:03;6.40;99.90
7163;DHT22;3623;47.098;15.446;2024-02-04T00:58:30;6.30;99.90
7163;DHT22;3623;47.098;15.446;2024-02-04T01:00:58;6.20;99.90
7163;DHT22;3623;47.098;15.446;2024-02-04T01:03:25;6.20;99.90
7163;DHT22;3623;47.098;15.446;2024-02-04T01:05:52;6.20;99.90
7163;DHT22;3623;47.098;15.446;2024-02-04T01:08:19;6.10;99.90
7163;DHT22;3623;47.098;15.446;2024-02-04T01:10:46;6.10;99.90
7163;DHT22;3623;47.098;15.446;2024-02-04T01:13:15;6.20;99.90
7163;DHT22;3623;47.098;15.446;2024-02-04T01:15:42;6.50;99.90
7163;DHT22;3623;47.098;15.446;2024-02-04T01:18:09;6.40;99.90
7163;DHT22;3623;47.098;15.446;2024-02-04T01:20:36;6.60;99.90
7163;DHT22;3623;47.098;15.446;2024-02-04T01:23:03;6.60;99.90
7163;DHT22;3623;47.098;15.446;2024-02-04T01:25:30;6.60;99.90
7163;DHT22;3623;47.098;15.446;2024-02-04T01:27:57;6.40;99.90
7163;DHT22;3623;47.098;15.446;2024-02-04T01:30:26;6.40;99.90
7163;DHT22;3623;47.098;15.446;2024-02-04T01:32:56;6.40;99.90
7163;DHT22;3623;47.098;15.446;2024-02-04T01:35:23;6.50;99.90
7163;DHT22;3623;47.098;15.446;2024-02-04T01:37:51;6.30;99.90
7163;DHT22;3623;47.098;15.446;2024-02-04T01:40:18;6.50;99.90
7163;DHT22;3623;47.098;15.446;2024-02-04T01:42:45;6.50;99.90
7163;DHT22;3623;47.098;15.446;2024-02-04T01:45:12;6.60;99.90
7163;DHT22;3623;47.098;15.446;2024-02-04T01:47:40;6.30;99.90
7163;DHT22;3623;47.098;15.446;2024-02-04T01:50:09;6.30;99.90
7163;DHT22;3623;47.098;15.446;2024-02-04T01:52:38;6.20;99.90
7163;DHT22;3623;47.098;15.446;2024-02-04T01:55:07;6.30;99.90
7163;DHT22;3623;47.098;15.446;2024-02-04T01:57:34;6.60;99.90
7163;DHT22;3623;47.098;15.446;2024-02-04T02:00:02;6.60;99.90
7163;DHT22;3623;47.098;15.446;2024-02-04T02:02:31;6.60;99.90
7163;DHT22;3623;47.098;15.446;2024-02-04T02:05:01;6.80;99.90
7163;DHT22;3623;47.098;15.446;2024-02-04T02:07:28;6.90;99.90
7163;DHT22;3623;47.098;15.446;2024-02-04T02:09:55;7.00;99.90
7163;DHT22;3623;47.098;15.446;2024-02-04T02:12:24;7.00;99.90
7163;DHT22;3623;47.098;15.446;2024-02-04T02:14:58;6.90;99.90
7163;DHT22;3623;47.098;15.446;2024-02-04T02:17:31;7.00;99.90
7163;DHT22;3623;47.098;15.446;2024-02-04T02:20:04;6.70;99.90
7163;DHT22;3623;47.098;15.446;2024-02-04T02:22:40;6.70;99.90
7163;DHT22;3623;47.098;15.446;2024-02-04T02:25:11;6.30;99.90
7163;DHT22;3623;47.098;15.446;2024-02-04T02:27:46;6.10;99.90
7163;DHT22;3623;47.098;15.446;2024-02-04T02:30:14;5.90;99.90
7163;DHT22;3623;47.098;15.446;2024-02-04T02:32:43;5.80;99.90
7163;DHT22;3623;47.098;15.446;2024-02-04T02:35:11;5.90;99.90
7163;DHT22;3623;47.098;15.446;2024-02-04T02:37:43;5.70;99.90
7163;DHT22;3623;47.098;15.446;2024-02-04T02:40:19;5.70;99.90
7163;DHT22;3623;47.098;15.446;2024-02-04T02:42:49;5.70;99.90
7163;DHT22;3623;47.098;15.446;2024-02-04T02:45:18;5.60;99.90
7163;DHT22;3623;47.098;15.446;2024-02-04T02:47:51;5.90;99.90
7163;DHT22;3623;47.098;15.446;2024-02-04T02:50:19;6.00;99.90
7163;DHT22;3623;47.098;15.446;2024-02-04T02:52:47;6.10;99.90
7163;DHT22;3623;47.098;15.446;2024-02-04T02:55:16;6.30;99.90
7163;DHT22;3623;47.098;15.446;2024-02-04T02:57:43;6.10;99.90
7163;DHT22;3623;47.098;15.446;2024-02-04T03:00:11;6.10;99.90
7163;DHT22;3623;47.098;15.446;2024-02-04T03:02:38;5.90;99.90
7163;DHT22;3623;47.098;15.446;2024-02-04T03:05:06;6.00;99.90
7163;DHT22;3623;47.098;15.446;2024-02-04T03:07:33;5.90;99.90
7163;DHT22;3623;47.098;15.446;2024-02-04T03:10:00;6.00;99.90
7163;DHT22;3623;47.098;15.446;2024-02-04T03:12:30;6.20;99.90
7163;DHT22;3623;47.098;15.446;2024-02-04T03:14:57;6.00;99.90
7163;DHT22;3623;47.098;15.446;2024-02-04T03:17:24;6.00;99.90
7163;DHT22;3623;47.098;15.446;2024-02-04T03:19:51;6.10;99.90
7163;DHT22;3623;47.098;15.446;2024-02-04T03:22:20;6.10;99.90
7163;DHT22;3623;47.098;15.446;2024-02-04T03:24:47;6.10;99.90
7163;DHT22;3623;47.098;15.446;2024-02-04T03:27:16;6.10;99.90
7163;DHT22;3623;47.098;15.446;2024-02-04T03:29:44;6.20;99.90
7163;DHT22;3623;47.098;15.446;2024-02-04T03:32:12;6.30;99.90
7163;DHT22;3623;47.098;15.446;2024-02-04T03:34:41;6.00;99.90
7163;DHT22;3623;47.098;15.446;2024-02-04T03:37:08;5.90;99.90
7163;DHT22;3623;47.098;15.446;2024-02-04T03:39:35;5.60;99.90
7163;DHT22;3623;47.098;15.446;2024-02-04T03:42:03;5.50;99.90
7163;DHT22;3623;47.098;15.446;2024-02-04T03:44:30;5.50;99.90
7163;DHT22;3623;47.098;15.446;2024-02-04T03:46:59;5.40;99.90
7163;DHT22;3623;47.098;15.446;2024-02-04T03:49:28;5.30;99.90
7163;DHT22;3623;47.098;15.446;2024-02-04T03:51:55;5.40;99.90
7163;DHT22;3623;47.098;15.446;2024-02-04T03:54:23;5.60;99.90
7163;DHT22;3623;47.098;15.446;2024-02-04T03:56:50;5.70;99.90
7163;DHT22;3623;47.098;15.446;2024-02-04T03:59:17;5.70;99.90
7163;DHT22;3623;47.098;15.446;2024-02-04T04:01:47;5.80;99.90
7163;DHT22;3623;47.098;15.446;2024-02-04T04:04:16;5.60;99.90
7163;DHT22;3623;47.098;15.446;2024-02-04T04:06:45;5.60;99.90
7163;DHT22;3623;47.098;15.446;2024-02-04T04:09:13;5.50;99.90
7163;DHT22;3623;47.098;15.446;2024-02-04T04:11:40;5.30;99.90
7163;DHT22;3623;47.098;15.446;2024-02-04T04:14:07;5.40;99.90
7163;DHT22;3623;47.098;15.446;2024-02-04T04:16:34;5.80;99.90
7163;DHT22;3623;47.098;15.446;2024-02-04T04:19:01;6.10;99.90
7163;DHT22;3623;47.098;15.446;2024-02-04T04:21:30;6.30;99.90
7163;DHT22;3623;47.098;15.446;2024-02-04T04:23:57;6.40;99.90
7163;DHT22;3623;47.098;15.446;2024-02-04T04:26:24;6.60;99.90
7163;DHT22;3623;47.098;15.446;2024-02-04T04:28:51;6.60;99.90
7163;DHT22;3623;47.098;15.446;2024-02-04T04:31:18;6.50;99.90
7163;DHT22;3623;47.098;15.446;2024-02-04T04:33:45;6.70;99.90
7163;DHT22;3623;47.098;15.446;2024-02-04T04:36:12;6.60;99.90
7163;DHT22;3623;47.098;15.446;2024-02-04T04:38:41;6.60;99.90
7163;DHT22;3623;47.098;15.446;2024-02-04T04:41:08;6.50;99.90
7163;DHT22;3623;47.098;15.446;2024-02-04T04:43:37;6.40;99.90
7163;DHT22;3623;47.098;15.446;2024-02-04T04:46:04;6.40;99.90
7163;DHT22;3623;47.098;15.446;2024-02-04T04:48:31;6.70;99.90
7163;DHT22;3623;47.098;15.446;2024-02-04T04:50:59;7.00;99.90
7163;DHT22;3623;47.098;15.446;2024-02-04T04:53:26;7.40;99.90
7163;DHT22;3623;47.098;15.446;2024-02-04T04:55:54;7.30;99.90
7163;DHT22;3623;47.098;15.446;2024-02-04T04:58:22;7.00;99.90
7163;DHT22;3623;47.098;15.446;2024-02-04T05:00:49;7.00;99.90
7163;DHT22;3623;47.098;15.446;2024-02-04T05:03:16;6.80;99.90
7163;DHT22;3623;47.098;15.446;2024-02-04T05:05:43;6.80;99.90
7163;DHT22;3623;47.098;15.446;2024-02-04T05:08:12;6.70;99.90
7163;DHT22;3623;47.098;15.446;2024-02-04T05:10:40;6.90;99.90
7163;DHT22;3623;47.098;15.446;2024-02-04T05:13:08;7.10;99.90
7163;DHT22;3623;47.098;15.446;2024-02-04T05:15:35;7.30;99.90
7163;DHT22;3623;47.098;15.446;2024-02-04T05:18:03;7.60;99.90
7163;DHT22;3623;47.098;15.446;2024-02-04T05:20:30;7.90;99.90
7163;DHT22;3623;47.098;15.446;2024-02-04T05:22:57;7.60;99.90
7163;DHT22;3623;47.098;15.446;2024-02-04T05:25:25;7.20;99.90
7163;DHT22;3623;47.098;15.446;2024-02-04T05:27:52;7.60;99.90
7163;DHT22;3623;47.098;15.446;2024-02-04T05:30:20;7.90;99.90
7163;DHT22;3623;47.098;15.446;2024-02-04T05:32:48;7.60;99.90
7163;DHT22;3623;47.098;15.446;2024-02-04T05:35:15;8.10;99.90
7163;DHT22;3623;47.098;15.446;2024-02-04T05:37:42;8.20;99.90
7163;DHT22;3623;47.098;15.446;2024-02-04T05:40:10;7.80;99.90
7163;DHT22;3623;47.098;15.446;2024-02-04T05:42:37;7.70;99.90
7163;DHT22;3623;47.098;15.446;2024-02-04T05:45:05;7.40;99.90
7163;DHT22;3623;47.098;15.446;2024-02-04T05:47:34;7.10;99.90
7163;DHT22;3623;47.098;15.446;2024-02-04T05:50:01;6.80;99.90
7163;DHT22;3623;47.098;15.446;2024-02-04T05:52:28;6.60;99.90
7163;DHT22;3623;47.098;15.446;2024-02-04T05:54:55;6.80;99.90
7163;DHT22;3623;47.098;15.446;2024-02-04T05:57:22;6.40;99.90
7163;DHT22;3623;47.098;15.446;2024-02-04T05:59:50;6.40;99.90
7163;DHT22;3623;47.098;15.446;2024-02-04T06:02:18;6.40;99.90
7163;DHT22;3623;47.098;15.446;2024-02-04T06:04:47;6.10;99.90
7163;DHT22;3623;47.098;15.446;2024-02-04T06:07:14;6.20;99.90
7163;DHT22;3623;47.098;15.446;2024-02-04T06:09:41;6.00;99.90
7163;DHT22;3623;47.098;15.446;2024-02-04T06:12:08;5.70;99.90
7163;DHT22;3623;47.098;15.446;2024-02-04T06:14:35;5.60;99.90
7163;DHT22;3623;47.098;15.446;2024-02-04T06:17:05;5.40;99.90
7163;DHT22;3623;47.098;15.446;2024-02-04T06:19:34;5.60;99.90
7163;DHT22;3623;47.098;15.446;2024-02-04T06:22:03;5.70;99.90
7163;DHT22;3623;47.098;15.446;2024-02-04T06:24:30;6.00;99.90
7163;DHT22;3623;47.098;15.446;2024-02-04T06:26:57;6.10;99.90
7163;DHT22;3623;47.098;15.446;2024-02-04T06:29:24;6.10;99.90
7163;DHT22;3623;47.098;15.446;2024-02-04T06:31:51;5.70;99.90
7163;DHT22;3623;47.098;15.446;2024-02-04T06:34:19;5.30;99.90
7163;DHT22;3623;47.098;15.446;2024-02-04T06:36:46;5.40;99.90
7163;DHT22;3623;47.098;15.446;2024-02-04T06:39:14;5.50;99.90
7163;DHT22;3623;47.098;15.446;2024-02-04T06:41:41;5.80;99.90
7163;DHT22;3623;47.098;15.446;2024-02-04T06:44:10;6.20;99.90
7163;DHT22;3623;47.098;15.446;2024-02-04T06:46:37;6.40;99.90
7163;DHT22;3623;47.098;15.446;2024-02-04T06:49:04;6.70;99.90
7163;DHT22;3623;47.098;15.446;2024-02-04T06:51:32;6.80;99.90
7163;DHT22;3623;47.098;15.446;2024-02-04T06:53:59;6.60;99.90
7163;DHT22;3623;47.098;15.446;2024-02-04T06:56:28;6.80;99.90
7163;DHT22;3623;47.098;15.446;2024-02-04T06:58:55;7.00;99.90
7163;DHT22;3623;47.098;15.446;2024-02-04T07:01:23;7.30;99.90
7163;DHT22;3623;47.098;15.446;2024-02-04T07:03:50;7.40;99.90
7163;DHT22;3623;47.098;15.446;2024-02-04T07:06:17;7.10;99.90
7163;DHT22;3623;47.098;15.446;2024-02-04T07:08:44;6.90;99.90
7163;DHT22;3623;47.098;15.446;2024-02-04T07:11:11;6.80;99.90
7163;DHT22;3623;47.098;15.446;2024-02-04T07:13:39;6.90;99.90
7163;DHT22;3623;47.098;15.446;2024-02-04T07:16:07;7.20;99.90
7163;DHT22;3623;47.098;15.446;2024-02-04T07:18:34;7.30;99.90
7163;DHT22;3623;47.098;15.446;2024-02-04T07:21:01;7.00;99.90
7163;DHT22;3623;47.098;15.446;2024-02-04T07:23:28;7.10;99.90
7163;DHT22;3623;47.098;15.446;2024-02-04T07:25:55;7.80;99.90
7163;DHT22;3623;47.098;15.446;2024-02-04T07:28:22;7.90;99.90
7163;DHT22;3623;47.098;15.446;2024-02-04T07:30:51;7.70;99.90
7163;DHT22;3623;47.098;15.446;2024-02-04T07:33:18;7.90;99.90
7163;DHT22;3623;47.098;15.446;2024-02-04T07:35:45;7.70;99.90
7163;DHT22;3623;47.098;15.446;2024-02-04T07:38:12;7.30;99.90
7163;DHT22;3623;47.098;15.446;2024-02-04T07:40:39;7.20;99.90
7163;DHT22;3623;47.098;15.446;2024-02-04T07:43:06;7.80;99.90
7163;DHT22;3623;47.098;15.446;2024-02-04T07:45:34;8.30;99.90
7163;DHT22;3623;47.098;15.446;2024-02-04T07:48:03;8.50;99.90
7163;DHT22;3623;47.098;15.446;2024-02-04T07:50:31;8.80;99.90
7163;DHT22;3623;47.098;15.446;2024-02-04T07:52:58;9.00;99.90
7163;DHT22;3623;47.098;15.446;2024-02-04T07:55:25;9.40;99.90
7163;DHT22;3623;47.098;15.446;2024-02-04T07:57:52;9.40;99.90
7163;DHT22;3623;47.098;15.446;2024-02-04T08:00:19;9.30;99.90
7163;DHT22;3623;47.098;15.446;2024-02-04T08:02:46;8.60;99.90
7163;DHT22;3623;47.098;15.446;2024-02-04T08:05:15;7.50;99.90
7163;DHT22;3623;47.098;15.446;2024-02-04T08:07:42;7.30;99.90
7163;DHT22;3623;47.098;15.446;2024-02-04T08:10:09;7.60;99.90
7163;DHT22;3623;47.098;15.446;2024-02-04T08:12:36;7.90;99.90
7163;DHT22;3623;47.098;15.446;2024-02-04T08:15:04;8.30;99.90
7163;DHT22;3623;47.098;15.446;2024-02-04T08:17:31;8.60;99.90
7163;DHT22;3623;47.098;15.446;2024-02-04T08:19:59;8.70;99.90
7163;DHT22;3623;47.098;15.446;2024-02-04T08:22:27;8.70;99.90
7163;DHT22;3623;47.098;15.446;2024-02-04T08:24:54;8.90;99.90
7163;DHT22;3623;47.098;15.446;2024-02-04T08:27:22;8.40;99.90
7163;DHT22;3623;47.098;15.446;2024-02-04T08:29:49;8.40;99.90
7163;DHT22;3623;47.098;15.446;2024-02-04T08:32:16;8.60;99.90
7163;DHT22;3623;47.098;15.446;2024-02-04T08:34:43;8.90;99.90
7163;DHT22;3623;47.098;15.446;2024-02-04T08:37:10;9.20;99.90
7163;DHT22;3623;47.098;15.446;2024-02-04T08:39:39;8.60;99.90
7163;DHT22;3623;47.098;15.446;2024-02-04T08:42:06;8.60;99.90
7163;DHT22;3623;47.098;15.446;2024-02-04T08:44:33;8.80;99.90
7163;DHT22;3623;47.098;15.446;2024-02-04T08:47:00;9.30;99.90
7163;DHT22;3623;47.098;15.446;2024-02-04T08:49:27;10.00;99.90
7163;DHT22;3623;47.098;15.446;2024-02-04T08:51:54;10.30;99.90
7163;DHT22;3623;47.098;15.446;2024-02-04T08:54:21;10.70;99.90
7163;DHT22;3623;47.098;15.446;2024-02-04T08:56:50;11.30;99.90
7163;DHT22;3623;47.098;15.446;2024-02-04T08:59:17;11.50;99.90
7163;DHT22;3623;47.098;15.446;2024-02-04T09:01:44;11.10;99.90
7163;DHT22;3623;47.098;15.446;2024-02-04T09:04:11;10.90;99.90
7163;DHT22;3623;47.098;15.446;2024-02-04T09:06:38;10.90;99.90
7163;DHT22;3623;47.098;15.446;2024-02-04T09:09:05;11.00;99.90
7163;DHT22;3623;47.098;15.446;2024-02-04T09:11:33;10.90;99.90
7163;DHT22;3623;47.098;15.446;2024-02-04T09:14:02;11.00;99.90
7163;DHT22;3623;47.098;15.446;2024-02-04T09:16:30;11.10;99.90
7163;DHT22;3623;47.098;15.446;2024-02-04T09:18:57;11.50;99.90
7163;DHT22;3623;47.098;15.446;2024-02-04T09:21:24;11.90;99.90
7163;DHT22;3623;47.098;15.446;2024-02-04T09:23:51;11.80;99.90
7163;DHT22;3623;47.098;15.446;2024-02-04T09:26:19;11.90;99.90
7163;DHT22;3623;47.098;15.446;2024-02-04T09:28:46;12.10;99.90
7163;DHT22;3623;47.098;15.446;2024-02-04T09:31:14;11.90;99.90
7163;DHT22;3623;47.098;15.446;2024-02-04T09:33:42;11.80;99.90
7163;DHT22;3623;47.098;15.446;2024-02-04T09:36:09;11.90;99.90
7163;DHT22;3623;47.098;15.446;2024-02-04T09:38:37;11.80;99.90
7163;DHT22;3623;47.098;15.446;2024-02-04T09:41:04;11.80;99.90
7163;DHT22;3623;47.098;15.446;2024-02-04T09:43:32;11.40;99.90
7163;DHT22;3623;47.098;15.446;2024-02-04T09:46:00;11.00;99.90
7163;DHT22;3623;47.098;15.446;2024-02-04T09:48:32;11.00;99.90
7163;DHT22;3623;47.098;15.446;2024-02-04T09:50:59;11.30;99.90
7163;DHT22;3623;47.098;15.446;2024-02-04T09:53:31;11.30;99.90
7163;DHT22;3623;47.098;15.446;2024-02-04T09:56:00;11.80;99.90
7163;DHT22;3623;47.098;15.446;2024-02-04T09:58:28;11.90;99.90
7163;DHT22;3623;47.098;15.446;2024-02-04T10:00:55;11.70;99.90
7163;DHT22;3623;47.098;15.446;2024-02-04T10:03:23;11.80;99.90
7163;DHT22;3623;47.098;15.446;2024-02-04T10:05:51;12.00;99.90
7163;DHT22;3623;47.098;15.446;2024-02-04T10:08:19;11.90;99.90
7163;DHT22;3623;47.098;15.446;2024-02-04T10:10:47;11.70;99.90
7163;DHT22;3623;47.098;15.446;2024-02-04T10:13:14;11.80;99.90
7163;DHT22;3623;47.098;15.446;2024-02-04T10:15:42;11.60;99.90
7163;DHT22;3623;47.098;15.446;2024-02-04T10:18:09;11.40;99.90
7163;DHT22;3623;47.098;15.446;2024-02-04T10:20:36;11.40;99.90
7163;DHT22;3623;47.098;15.446;2024-02-04T10:23:05;11.20;99.90
7163;DHT22;3623;47.098;15.446;2024-02-04T10:25:32;11.10;99.90
7163;DHT22;3623;47.098;15.446;2024-02-04T10:27:59;11.20;99.90
7163;DHT22;3623;47.098;15.446;2024-02-04T10:30:26;10.90;99.90
7163;DHT22;3623;47.098;15.446;2024-02-04T10:32:54;10.90;99.90
7163;DHT22;3623;47.098;15.446;2024-02-04T10:35:21;11.00;99.90
7163;DHT22;3623;47.098;15.446;2024-02-04T10:37:49;11.10;99.90
7163;DHT22;3623;47.098;15.446;2024-02-04T10:40:18;11.00;99.90
7163;DHT22;3623;47.098;15.446;2024-02-04T10:42:46;11.10;99.90
7163;DHT22;3623;47.098;15.446;2024-02-04T10:45:17;11.40;99.90
7163;DHT22;3623;47.098;15.446;2024-02-04T10:47:49;11.20;99.90
7163;DHT22;3623;47.098;15.446;2024-02-04T10:50:18;11.20;99.90
7163;DHT22;3623;47.098;15.446;2024-02-04T10:52:46;11.30;99.90
7163;DHT22;3623;47.098;15.446;2024-02-04T10:55:19;11.60;99.90
7163;DHT22;3623;47.098;15.446;2024-02-04T10:57:48;11.70;99.90
7163;DHT22;3623;47.098;15.446;2024-02-04T11:00:17;11.90;99.90
7163;DHT22;3623;47.098;15.446;2024-02-04T11:02:46;12.10;99.90
7163;DHT22;3623;47.098;15.446;2024-02-04T11:05:15;12.00;99.90
7163;DHT22;3623;47.098;15.446;2024-02-04T11:07:44;12.10;99.90
7163;DHT22;3623;47.098;15.446;2024-02-04T11:10:11;12.30;99.90
7163;DHT22;3623;47.098;15.446;2024-02-04T11:12:42;12.50;99.90
7163;DHT22;3623;47.098;15.446;2024-02-04T11:15:12;13.10;99.90
7163;DHT22;3623;47.098;15.446;2024-02-04T11:20:58;13.90;99.30
7163;DHT22;3623;47.098;15.446;2024-02-04T11:23:37;13.80;99.40
7163;DHT22;3623;47.098;15.446;2024-02-04T11:26:09;14.30;99.30
7163;DHT22;3623;47.098;15.446;2024-02-04T11:28:38;14.20;99.30
7163;DHT22;3623;47.098;15.446;2024-02-04T11:31:13;14.10;97.70
7163;DHT22;3623;47.098;15.446;2024-02-04T11:33:41;14.80;98.00
7163;DHT22;3623;47.098;15.446;2024-02-04T11:36:13;15.20;97.70
7163;DHT22;3623;47.098;15.446;2024-02-04T11:38:40;15.80;96.20
7163;DHT22;3623;47.098;15.446;2024-02-04T11:41:08;16.00;94.90
7163;DHT22;3623;47.098;15.446;2024-02-04T11:43:38;15.90;94.90
7163;DHT22;3623;47.098;15.446;2024-02-04T11:46:05;16.60;95.40
7163;DHT22;3623;47.098;15.446;2024-02-04T11:48:33;17.30;94.00
7163;DHT22;3623;47.098;15.446;2024-02-04T11:51:04;17.70;92.90
7163;DHT22;3623;47.098;15.446;2024-02-04T11:53:31;18.10;92.40
7163;DHT22;3623;47.098;15.446;2024-02-04T11:56:00;18.00;92.00
7163;DHT22;3623;47.098;15.446;2024-02-04T11:58:29;17.80;92.40
7163;DHT22;3623;47.098;15.446;2024-02-04T12:00:58;18.80;91.50
7163;DHT22;3623;47.098;15.446;2024-02-04T12:03:29;18.70;90.30
7163;DHT22;3623;47.098;15.446;2024-02-04T12:05:57;19.50;91.00
7163;DHT22;3623;47.098;15.446;2024-02-04T12:08:25;20.90;91.70
7163;DHT22;3623;47.098;15.446;2024-02-04T12:10:53;21.20;92.70
7163;DHT22;3623;47.098;15.446;2024-02-04T12:13:20;21.40;94.40
7163;DHT22;3623;47.098;15.446;2024-02-04T12:15:47;21.80;94.10
7163;DHT22;3623;47.098;15.446;2024-02-04T12:18:16;21.40;90.30
7163;DHT22;3623;47.098;15.446;2024-02-04T12:20:46;21.50;91.10
7163;DHT22;3623;47.098;15.446;2024-02-04T12:23:14;22.40;88.00
7163;DHT22;3623;47.098;15.446;2024-02-04T12:25:41;22.50;86.40
7163;DHT22;3623;47.098;15.446;2024-02-04T12:28:09;21.80;87.00
7163;DHT22;3623;47.098;15.446;2024-02-04T12:30:36;21.50;89.10
7163;DHT22;3623;47.098;15.446;2024-02-04T12:33:04;21.30;88.60
7163;DHT22;3623;47.098;15.446;2024-02-04T12:35:33;21.60;89.20
7163;DHT22;3623;47.098;15.446;2024-02-04T12:38:01;21.70;85.70
7163;DHT22;3623;47.098;15.446;2024-02-04T12:40:29;22.20;87.30
7163;DHT22;3623;47.098;15.446;2024-02-04T12:42:58;21.00;86.50
7163;DHT22;3623;47.098;15.446;2024-02-04T12:45:27;20.40;87.40
7163;DHT22;3623;47.098;15.446;2024-02-04T12:47:57;20.20;87.00
7163;DHT22;3623;47.098;15.446;2024-02-04T12:50:25;21.10;88.10
7163;DHT22;3623;47.098;15.446;2024-02-04T12:53:04;22.00;85.30
7163;DHT22;3623;47.098;15.446;2024-02-04T12:55:32;23.00;84.50
7163;DHT22;3623;47.098;15.446;2024-02-04T12:58:03;23.10;82.90
7163;DHT22;3623;47.098;15.446;2024-02-04T13:00:31;23.40;82.50
7163;DHT22;3623;47.098;15.446;2024-02-04T13:02:58;23.00;81.70
7163;DHT22;3623;47.098;15.446;2024-02-04T13:05:26;22.40;84.90
7163;DHT22;3623;47.098;15.446;2024-02-04T13:07:57;22.00;86.10
7163;DHT22;3623;47.098;15.446;2024-02-04T13:10:27;21.70;87.00
7163;DHT22;3623;47.098;15.446;2024-02-04T13:13:00;22.40;86.30
7163;DHT22;3623;47.098;15.446;2024-02-04T13:15:27;23.10;85.90
7163;DHT22;3623;47.098;15.446;2024-02-04T13:17:55;23.50;85.40
7163;DHT22;3623;47.098;15.446;2024-02-04T13:20:22;22.90;84.30
7163;DHT22;3623;47.098;15.446;2024-02-04T13:22:50;21.80;85.60
7163;DHT22;3623;47.098;15.446;2024-02-04T13:25:19;19.40;86.10
7163;DHT22;3623;47.098;15.446;2024-02-04T13:27:48;20.00;88.40
7163;DHT22;3623;47.098;15.446;2024-02-04T13:30:15;19.60;86.80
7163;DHT22;3623;47.098;15.446;2024-02-04T13:32:42;19.00;87.30
7163;DHT22;3623;47.098;15.446;2024-02-04T13:35:10;18.30;87.30
7163;DHT22;3623;47.098;15.446;2024-02-04T13:37:39;17.40;88.40
7163;DHT22;3623;47.098;15.446;2024-02-04T13:40:07;17.00;90.50
7163;DHT22;3623;47.098;15.446;2024-02-04T13:42:35;16.80;90.30
7163;DHT22;3623;47.098;15.446;2024-02-04T13:45:05;16.80;91.60
7163;DHT22;3623;47.098;15.446;2024-02-04T13:47:32;16.70;91.30
7163;DHT22;3623;47.098;15.446;2024-02-04T13:50:00;16.40;91.20
7163;DHT22;3623;47.098;15.446;2024-02-04T13:52:28;16.10;91.40
7163;DHT22;3623;47.098;15.446;2024-02-04T13:54:55;16.10;92.20
7163;DHT22;3623;47.098;15.446;2024-02-04T13:57:22;15.70;91.50
7163;DHT22;3623;47.098;15.446;2024-02-04T13:59:49;15.10;92.00
7163;DHT22;3623;47.098;15.446;2024-02-04T14:02:18;14.90;92.20
7163;DHT22;3623;47.098;15.446;2024-02-04T14:04:45;15.00;92.90
7163;DHT22;3623;47.098;15.446;2024-02-04T14:07:12;15.00;92.70
7163;DHT22;3623;47.098;15.446;2024-02-04T14:09:39;14.90;93.30
7163;DHT22;3623;47.098;15.446;2024-02-04T14:12:07;15.00;93.10
7163;DHT22;3623;47.098;15.446;2024-02-04T14:14:34;15.20;93.70
7163;DHT22;3623;47.098;15.446;2024-02-04T14:17:01;15.20;93.40
7163;DHT22;3623;47.098;15.446;2024-02-04T14:19:30;15.00;93.30
7163;DHT22;3623;47.098;15.446;2024-02-04T14:21:57;15.30;93.40
7163;DHT22;3623;47.098;15.446;2024-02-04T14:24:24;15.10;93.40
7163;DHT22;3623;47.098;15.446;2024-02-04T14:26:56;15.00;92.90
7163;DHT22;3623;47.098;15.446;2024-02-04T14:29:24;14.90;92.30
7163;DHT22;3623;47.098;15.446;2024-02-04T14:31:52;14.70;93.00
7163;DHT22;3623;47.098;15.446;2024-02-04T14:34:19;14.60;92.80
7163;DHT22;3623;47.098;15.446;2024-02-04T14:36:47;14.80;93.60
7163;DHT22;3623;47.098;15.446;2024-02-04T14:39:15;14.70;93.60
7163;DHT22;3623;47.098;15.446;2024-02-04T14:41:42;14.70;93.60
7163;DHT22;3623;47.098;15.446;2024-02-04T14:44:09;14.80;94.00
7163;DHT22;3623;47.098;15.446;2024-02-04T14:46:37;14.70;93.90
7163;DHT22;3623;47.098;15.446;2024-02-04T14:49:05;14.50;93.30
7163;DHT22;3623;47.098;15.446;2024-02-04T14:51:32;14.50;93.70
7163;DHT22;3623;47.098;15.446;2024-02-04T14:54:02;14.60;93.80
7163;DHT22;3623;47.098;15.446;2024-02-04T14:56:31;14.30;93.50
7163;DHT22;3623;47.098;15.446;2024-02-04T14:58:59;14.30;94.20
7163;DHT22;3623;47.098;15.446;2024-02-04T15:01:27;14.20;93.90
7163;DHT22;3623;47.098;15.446;2024-02-04T15:03:54;14.10;94.10
7163;DHT22;3623;47.098;15.446;2024-02-04T15:06:22;14.20;94.60
7163;DHT22;3623;47.098;15.446;2024-02-04T15:08:49;14.10;94.50
7163;DHT22;3623;47.098;15.446;2024-02-04T15:11:18;14.10;94.80
7163;DHT22;3623;47.098;15.446;2024-02-04T15:13:46;14.00;95.20
7163;DHT22;3623;47.098;15.446;2024-02-04T15:16:13;13.90;95.30
7163;DHT22;3623;47.098;15.446;2024-02-04T15:18:41;14.00;95.40
7163;DHT22;3623;47.098;15.446;2024-02-04T15:21:09;13.80;95.40
7163;DHT22;3623;47.098;15.446;2024-02-04T15:23:36;13.90;95.70
7163;DHT22;3623;47.098;15.446;2024-02-04T15:26:07;13.70;96.00
7163;DHT22;3623;47.098;15.446;2024-02-04T15:28:38;13.90;95.80
7163;DHT22;3623;47.098;15.446;2024-02-04T15:31:06;13.50;95.60
7163;DHT22;3623;47.098;15.446;2024-02-04T15:33:34;13.60;95.80
7163;DHT22;3623;47.098;15.446;2024-02-04T15:36:01;13.80;96.00
7163;DHT22;3623;47.098;15.446;2024-02-04T15:38:28;13.40;96.00
7163;DHT22;3623;47.098;15.446;2024-02-04T15:40:56;13.30;97.30
7163;DHT22;3623;47.098;15.446;2024-02-04T15:43:23;13.10;97.50
7163;DHT22;3623;47.098;15.446;2024-02-04T15:45:52;12.90;96.90
7163;DHT22;3623;47.098;15.446;2024-02-04T15:48:25;12.90;97.60
7163;DHT22;3623;47.098;15.446;2024-02-04T15:50:56;12.70;97.90
7163;DHT22;3623;47.098;15.446;2024-02-04T15:53:24;12.70;98.10
7163;DHT22;3623;47.098;15.446;2024-02-04T15:55:52;12.70;98.00
7163;DHT22;3623;47.098;15.446;2024-02-04T15:58:20;12.70;98.60
7163;DHT22;3623;47.098;15.446;2024-02-04T16:00:48;12.80;98.60
7163;DHT22;3623;47.098;15.446;2024-02-04T16:03:17;12.70;98.80